createdAt,value
2023-05-19T00:02:12.532Z,9.21
2023-05-19T00:04:41.724Z,9.21
2023-05-19T00:07:10.647Z,9.20
2023-05-19T00:09:41.083Z,9.18
2023-05-19T00:12:10.898Z,9.16
2023-05-19T00:14:39.702Z,9.16
2023-05-19T00:17:09.660Z,9.12
2023-05-19T00:19:38.171Z,9.12
2023-05-19T00:22:06.521Z,9.14
2023-05-19T00:24:34.877Z,9.12
2023-05-19T00:27:04.836Z,9.10
2023-05-19T00:29:33.730Z,9.10
2023-05-19T00:32:02.513Z,9.08
2023-05-19T00:34:30.837Z,9.07
2023-05-19T00:36:59.124Z,9.05
2023-05-19T00:39:27.469Z,9.02
2023-05-19T00:41:55.843Z,9.03
2023-05-19T00:44:25.848Z,9.00
2023-05-19T00:46:54.210Z,8.97
2023-05-19T00:49:22.856Z,8.97
2023-05-19T00:51:51.701Z,8.96
2023-05-19T00:54:20.517Z,8.90
2023-05-19T00:56:49.924Z,8.85
2023-05-19T00:59:18.822Z,8.80
2023-05-19T01:01:49.350Z,8.75
2023-05-19T01:04:17.723Z,8.71
2023-05-19T01:06:46.084Z,8.68
2023-05-19T01:09:14.554Z,8.63
2023-05-19T01:11:43.212Z,8.60
2023-05-19T01:14:11.800Z,8.55
2023-05-19T01:16:41.714Z,8.49
2023-05-19T01:19:16.302Z,8.43
2023-05-19T01:22:04.080Z,8.37
2023-05-19T01:25:10.983Z,8.31
2023-05-19T01:27:48.539Z,8.19
2023-05-19T01:30:32.153Z,8.10
2023-05-19T01:33:01.817Z,8.01
2023-05-19T01:35:30.223Z,7.93
2023-05-19T01:38:00.506Z,7.84
2023-05-19T01:40:29.105Z,7.77
2023-05-19T01:42:59.629Z,7.69
2023-05-19T01:45:28.167Z,7.62
2023-05-19T01:47:58.853Z,7.57
2023-05-19T01:50:27.278Z,7.53
2023-05-19T01:52:56.459Z,7.48
2023-05-19T01:55:25.404Z,7.43
2023-05-19T01:58:04.131Z,7.40
2023-05-19T02:00:38.540Z,7.37
2023-05-19T02:03:12.909Z,7.36
2023-05-19T02:05:45.578Z,7.32
2023-05-19T02:08:30.932Z,7.29
2023-05-19T02:11:05.119Z,7.27
2023-05-19T02:13:35.754Z,7.23
2023-05-19T02:16:06.068Z,7.16
2023-05-19T02:18:36.701Z,7.12
2023-05-19T02:21:05.187Z,7.07
2023-05-19T02:23:33.713Z,7.03
2023-05-19T02:26:02.078Z,6.98
2023-05-19T02:28:30.333Z,6.92
2023-05-19T02:30:59.944Z,6.84
2023-05-19T02:33:31.603Z,6.79
2023-05-19T02:36:01.343Z,6.72
2023-05-19T02:38:30.470Z,6.69
2023-05-19T02:40:59.182Z,6.68
2023-05-19T02:43:27.605Z,6.65
2023-05-19T02:45:56.423Z,6.61
2023-05-19T02:48:25.053Z,6.59
2023-05-19T02:50:53.341Z,6.57
2023-05-19T02:53:23.158Z,6.53
2023-05-19T02:55:51.540Z,6.46
2023-05-19T02:58:20.930Z,6.46
2023-05-19T03:00:49.414Z,6.39
2023-05-19T03:03:18.262Z,6.31
2023-05-19T03:05:47.396Z,6.24
2023-05-19T03:08:15.732Z,6.25
2023-05-19T03:10:45.451Z,6.22
2023-05-19T03:13:13.795Z,6.21
2023-05-19T03:15:42.831Z,6.15
2023-05-19T03:18:12.102Z,6.08
2023-05-19T03:20:42.519Z,6.02
2023-05-19T03:23:10.850Z,5.93
2023-05-19T03:25:39.088Z,5.87
2023-05-19T03:28:09.072Z,5.82
2023-05-19T03:30:37.407Z,5.77
2023-05-19T03:33:13.523Z,5.71
2023-05-19T03:35:42.354Z,5.68
2023-05-19T03:38:10.610Z,5.68
2023-05-19T03:40:41.439Z,5.66
2023-05-19T03:43:14.495Z,5.65
2023-05-19T03:45:48.547Z,5.65
2023-05-19T03:48:37.116Z,5.65
2023-05-19T03:51:20.498Z,5.64
2023-05-19T03:53:52.085Z,5.62
2023-05-19T03:56:24.178Z,5.62
2023-05-19T03:58:54.859Z,5.64
2023-05-19T04:01:23.134Z,5.65
2023-05-19T04:03:51.413Z,5.70
2023-05-19T04:06:20.224Z,5.73
2023-05-19T04:08:48.482Z,5.75
2023-05-19T04:11:20.041Z,5.77
2023-05-19T04:13:48.347Z,5.80
2023-05-19T04:16:18.132Z,5.85
2023-05-19T04:18:46.651Z,5.88
2023-05-19T04:21:15.028Z,5.95
2023-05-19T04:23:43.878Z,6.04
2023-05-19T04:26:12.352Z,6.14
2023-05-19T04:28:42.460Z,6.22
2023-05-19T04:31:11.194Z,6.30
2023-05-19T04:33:41.394Z,6.36
2023-05-19T04:36:10.800Z,6.43
2023-05-19T04:38:41.994Z,6.48
2023-05-19T04:41:12.630Z,6.56
2023-05-19T04:43:44.816Z,6.64
2023-05-19T04:46:14.820Z,6.74
2023-05-19T04:48:47.751Z,6.84
2023-05-19T04:51:17.762Z,6.94
2023-05-19T04:53:46.512Z,7.02
2023-05-19T04:56:15.878Z,7.12
2023-05-19T04:58:46.873Z,7.22
2023-05-19T05:01:15.932Z,7.35
2023-05-19T05:03:46.564Z,7.51
2023-05-19T05:06:15.409Z,7.69
2023-05-19T05:08:44.059Z,7.86
2023-05-19T05:11:13.225Z,8.01
2023-05-19T05:13:42.021Z,8.09
2023-05-19T05:16:12.418Z,8.21
2023-05-19T05:18:44.328Z,8.31
2023-05-19T05:21:15.588Z,8.42
2023-05-19T05:23:44.455Z,8.53
2023-05-19T05:26:18.302Z,8.64
2023-05-19T05:28:48.444Z,8.77
2023-05-19T05:31:17.268Z,8.86
2023-05-19T05:33:46.603Z,8.96
2023-05-19T05:36:17.480Z,9.09
2023-05-19T05:38:45.944Z,9.19
2023-05-19T05:41:14.252Z,9.31
2023-05-19T05:43:42.629Z,9.39
2023-05-19T05:46:11.177Z,9.45
2023-05-19T05:48:42.128Z,9.59
2023-05-19T05:51:11.757Z,9.75
2023-05-19T05:53:44.313Z,9.82
2023-05-19T05:56:15.508Z,9.92
2023-05-19T05:58:50.740Z,9.98
2023-05-19T06:01:19.105Z,10.08
2023-05-19T06:03:47.805Z,10.23
2023-05-19T06:06:21.332Z,10.30
2023-05-19T06:08:51.130Z,10.39
2023-05-19T06:11:21.541Z,10.40
2023-05-19T06:13:50.374Z,10.64
2023-05-19T06:16:37.359Z,11.01
2023-05-19T06:19:05.965Z,11.36
2023-05-19T06:21:34.376Z,11.77
2023-05-19T06:24:04.097Z,11.99
2023-05-19T06:26:32.972Z,12.12
2023-05-19T06:29:01.975Z,12.14
2023-05-19T06:31:31.548Z,12.21
2023-05-19T06:34:06.478Z,12.35
2023-05-19T06:36:35.307Z,12.54
2023-05-19T06:39:05.641Z,12.69
2023-05-19T06:41:34.822Z,12.78
2023-05-19T06:44:04.546Z,12.72
2023-05-19T06:46:35.028Z,12.82
2023-05-19T06:49:03.458Z,12.78
2023-05-19T06:51:35.978Z,12.79
2023-05-19T06:54:05.953Z,12.75
2023-05-19T06:56:34.290Z,12.71
2023-05-19T06:59:02.843Z,12.76
2023-05-19T07:01:35.730Z,12.78
2023-05-19T07:04:05.387Z,12.95
2023-05-19T07:06:34.034Z,13.02
2023-05-19T07:09:05.282Z,13.40
2023-05-19T07:11:35.789Z,13.73
2023-05-19T07:14:04.530Z,14.13
2023-05-19T07:16:33.750Z,14.27
2023-05-19T07:19:02.142Z,14.37
2023-05-19T07:21:30.967Z,14.59
2023-05-19T07:23:59.330Z,14.74
2023-05-19T07:26:30.049Z,14.68
2023-05-19T07:28:59.725Z,14.43
2023-05-19T07:31:28.060Z,14.41
2023-05-19T07:33:56.320Z,14.43
2023-05-19T07:36:24.975Z,14.50
2023-05-19T07:38:53.296Z,14.52
2023-05-19T07:41:21.652Z,14.54
2023-05-19T07:43:49.982Z,14.38
2023-05-19T07:46:19.777Z,14.20
2023-05-19T07:48:48.445Z,14.10
2023-05-19T07:51:17.059Z,14.06
2023-05-19T07:53:47.131Z,14.07
2023-05-19T07:56:15.521Z,14.36
2023-05-19T07:58:43.759Z,14.52
2023-05-19T08:01:12.436Z,14.60
2023-05-19T08:03:42.115Z,14.72
2023-05-19T08:06:10.400Z,14.79
2023-05-19T08:08:38.712Z,15.04
2023-05-19T08:11:07.052Z,14.96
2023-05-19T08:13:35.903Z,14.84
2023-05-19T08:16:05.339Z,14.99
2023-05-19T08:18:33.669Z,15.03
2023-05-19T08:21:03.500Z,15.22
2023-05-19T08:23:31.904Z,15.32
2023-05-19T08:26:00.145Z,15.35
2023-05-19T08:28:28.361Z,15.30
2023-05-19T08:30:57.260Z,15.46
2023-05-19T08:33:25.606Z,15.76
2023-05-19T08:35:55.484Z,15.70
2023-05-19T08:38:25.147Z,15.82
2023-05-19T08:40:53.554Z,15.89
2023-05-19T08:43:22.456Z,15.59
2023-05-19T08:45:50.915Z,15.58
2023-05-19T08:48:19.553Z,15.68
2023-05-19T08:50:58.342Z,15.82
2023-05-19T08:53:33.329Z,16.15
2023-05-19T08:56:10.218Z,16.16
2023-05-19T08:58:40.100Z,16.51
2023-05-19T09:01:09.418Z,16.77
2023-05-19T09:03:38.452Z,16.99
2023-05-19T09:06:08.846Z,17.17
2023-05-19T09:08:38.708Z,16.83
2023-05-19T09:11:07.400Z,16.95
2023-05-19T09:13:35.758Z,16.90
2023-05-19T09:16:04.401Z,16.78
2023-05-19T09:18:33.113Z,16.54
2023-05-19T09:21:03.208Z,16.48
2023-05-19T09:23:33.573Z,16.63
2023-05-19T09:26:07.737Z,16.66
2023-05-19T09:28:37.941Z,16.56
2023-05-19T09:31:07.114Z,16.44
2023-05-19T09:33:36.309Z,16.60
2023-05-19T09:36:06.185Z,16.88
2023-05-19T09:38:34.875Z,17.20
2023-05-19T09:41:06.017Z,17.40
2023-05-19T09:43:34.631Z,17.18
2023-05-19T09:46:05.222Z,17.14
2023-05-19T09:48:33.600Z,17.16
2023-05-19T09:51:02.473Z,17.15
2023-05-19T09:53:34.547Z,17.38
2023-05-19T09:56:04.595Z,18.04
2023-05-19T09:58:34.767Z,18.58
2023-05-19T10:01:03.264Z,18.66
2023-05-19T10:03:31.749Z,19.12
2023-05-19T10:06:00.475Z,19.90
2023-05-19T10:08:30.381Z,19.82
2023-05-19T10:10:58.985Z,19.54
2023-05-19T10:13:28.950Z,18.76
2023-05-19T10:15:59.421Z,18.60
2023-05-19T10:18:30.055Z,18.89
2023-05-19T10:20:58.822Z,18.99
2023-05-19T10:23:27.132Z,19.03
2023-05-19T10:25:56.812Z,18.68
2023-05-19T10:28:28.098Z,18.58
2023-05-19T10:30:58.856Z,18.78
2023-05-19T10:33:31.150Z,19.21
2023-05-19T10:36:08.699Z,19.67
2023-05-19T10:38:43.073Z,19.90
2023-05-19T10:41:14.383Z,19.71
2023-05-19T10:43:49.401Z,19.33
2023-05-19T10:46:19.470Z,19.27
2023-05-19T10:48:47.773Z,19.05
2023-05-19T10:51:16.334Z,18.79
2023-05-19T10:53:47.308Z,18.92
2023-05-19T10:56:30.352Z,18.78
2023-05-19T10:58:58.967Z,18.49
2023-05-19T11:01:33.510Z,18.48
2023-05-19T11:04:06.588Z,18.35
2023-05-19T11:06:35.846Z,18.28
2023-05-19T11:09:11.794Z,18.38
2023-05-19T11:11:48.014Z,18.25
2023-05-19T11:14:18.154Z,18.29
2023-05-19T11:16:49.512Z,17.97
2023-05-19T11:19:21.593Z,17.74
2023-05-19T11:21:50.673Z,18.21
2023-05-19T11:24:37.816Z,18.87
2023-05-19T11:27:22.486Z,19.10
2023-05-19T11:29:51.310Z,19.27
2023-05-19T11:32:21.650Z,19.35
2023-05-19T11:34:50.051Z,19.48
2023-05-19T11:37:18.378Z,19.54
2023-05-19T11:39:47.463Z,19.47
2023-05-19T11:42:15.788Z,19.30
2023-05-19T11:44:46.189Z,19.39
2023-05-19T11:47:15.196Z,19.60
2023-05-19T11:49:46.289Z,19.82
2023-05-19T11:52:14.883Z,19.51
2023-05-19T11:54:43.206Z,19.54
2023-05-19T11:57:11.679Z,19.15
2023-05-19T11:59:43.901Z,18.80
2023-05-19T12:02:17.813Z,18.55
2023-05-19T12:04:47.642Z,18.41
2023-05-19T12:07:18.490Z,18.49
2023-05-19T12:09:47.234Z,18.53
2023-05-19T12:12:17.066Z,18.53
2023-05-19T12:14:45.497Z,18.43
2023-05-19T12:17:14.561Z,18.34
2023-05-19T12:19:44.547Z,18.32
2023-05-19T12:22:14.215Z,18.26
2023-05-19T12:24:43.054Z,18.47
2023-05-19T12:27:19.564Z,18.63
2023-05-19T12:29:51.826Z,18.59
2023-05-19T12:32:20.590Z,18.67
2023-05-19T12:34:49.280Z,18.96
2023-05-19T12:37:19.774Z,18.67
2023-05-19T12:39:49.292Z,18.55
2023-05-19T12:42:17.873Z,18.28
2023-05-19T12:44:47.527Z,18.35
2023-05-19T12:47:16.716Z,18.53
2023-05-19T12:49:58.036Z,18.60
2023-05-19T12:52:29.091Z,18.42
2023-05-19T12:55:01.090Z,18.39
2023-05-19T12:57:31.654Z,18.47
2023-05-19T13:00:06.913Z,18.61
2023-05-19T13:02:36.884Z,18.78
2023-05-19T13:05:05.908Z,18.68
2023-05-19T13:07:35.782Z,18.64
2023-05-19T13:10:04.239Z,18.64
2023-05-19T13:12:32.478Z,18.54
2023-05-19T13:15:01.276Z,18.58
2023-05-19T13:17:29.666Z,18.29
2023-05-19T13:19:58.406Z,18.26
2023-05-19T13:22:26.723Z,18.32
2023-05-19T13:24:59.008Z,18.21
2023-05-19T13:27:27.697Z,18.09
2023-05-19T13:29:56.006Z,18.31
2023-05-19T13:32:24.676Z,18.68
2023-05-19T13:34:53.032Z,18.90
2023-05-19T13:37:21.630Z,18.89
2023-05-19T13:39:49.930Z,18.78
2023-05-19T13:42:20.030Z,18.54
2023-05-19T13:44:48.370Z,18.43
2023-05-19T13:47:16.862Z,18.38
2023-05-19T13:49:45.263Z,18.36
2023-05-19T13:52:13.573Z,18.41
2023-05-19T13:54:41.859Z,18.34
2023-05-19T13:57:10.680Z,18.01
2023-05-19T13:59:52.942Z,17.82
2023-05-19T14:02:30.511Z,17.54
2023-05-19T14:04:59.069Z,17.48
2023-05-19T14:07:27.305Z,17.48
2023-05-19T14:09:56.327Z,17.37
2023-05-19T14:12:33.921Z,17.21
2023-05-19T14:15:11.587Z,17.11
2023-05-19T14:17:40.090Z,17.09
2023-05-19T14:20:09.677Z,17.15
2023-05-19T14:22:38.412Z,17.06
2023-05-19T14:25:07.541Z,17.06
2023-05-19T14:27:35.797Z,17.02
2023-05-19T14:30:04.130Z,16.82
2023-05-19T14:32:33.876Z,16.73
2023-05-19T14:35:02.258Z,16.65
2023-05-19T14:37:32.001Z,16.60
2023-05-19T14:40:01.298Z,16.52
2023-05-19T14:42:30.342Z,16.32
2023-05-19T14:44:58.620Z,16.18
2023-05-19T14:47:27.502Z,16.08
2023-05-19T14:49:57.592Z,16.03
2023-05-19T14:52:26.363Z,16.12
2023-05-19T14:54:55.933Z,16.14
2023-05-19T14:57:24.208Z,16.11
2023-05-19T14:59:52.519Z,16.08
2023-05-19T15:02:20.871Z,16.09
2023-05-19T15:04:49.338Z,16.10
2023-05-19T15:07:19.021Z,15.93
2023-05-19T15:09:47.342Z,15.98
2023-05-19T15:12:15.634Z,16.04
2023-05-19T15:14:43.937Z,16.05
2023-05-19T15:17:12.526Z,16.11
2023-05-19T15:19:42.846Z,16.20
2023-05-19T15:22:11.124Z,16.24
2023-05-19T15:24:41.354Z,16.36
2023-05-19T15:27:09.708Z,16.44
2023-05-19T15:29:37.948Z,16.47
2023-05-19T15:32:07.376Z,16.50
2023-05-19T15:34:35.590Z,16.54
2023-05-19T15:37:04.602Z,16.54
2023-05-19T15:39:33.725Z,16.52
2023-05-19T15:42:03.399Z,16.53
2023-05-19T15:44:31.673Z,16.49
2023-05-19T15:47:00.525Z,16.35
2023-05-19T15:49:28.791Z,16.36
2023-05-19T15:51:57.046Z,16.31
2023-05-19T15:54:25.325Z,16.25
2023-05-19T15:56:53.551Z,16.17
2023-05-19T15:59:25.708Z,16.16
2023-05-19T16:01:54.034Z,15.88
2023-05-19T16:04:22.795Z,15.70
2023-05-19T16:06:51.380Z,15.62
2023-05-19T16:09:20.118Z,15.53
2023-05-19T16:11:48.382Z,15.42
2023-05-19T16:14:16.661Z,15.34
2023-05-19T16:16:47.655Z,15.25
2023-05-19T16:19:15.993Z,15.23
2023-05-19T16:21:44.262Z,15.23
2023-05-19T16:24:12.505Z,15.26
2023-05-19T16:26:41.185Z,15.32
2023-05-19T16:29:09.474Z,15.26
2023-05-19T16:31:37.791Z,15.22
2023-05-19T16:34:07.532Z,15.14
2023-05-19T16:36:36.544Z,15.10
2023-05-19T16:39:05.059Z,15.03
2023-05-19T16:41:33.637Z,14.94
2023-05-19T16:44:02.490Z,14.90
2023-05-19T16:46:31.645Z,14.93
2023-05-19T16:49:00.067Z,14.95
2023-05-19T16:51:29.759Z,14.89
2023-05-19T16:53:58.252Z,14.90
2023-05-19T16:56:26.544Z,14.88
2023-05-19T16:58:55.180Z,14.91
2023-05-19T17:01:23.508Z,14.84
2023-05-19T17:03:51.907Z,14.86
2023-05-19T17:06:20.444Z,14.91
2023-05-19T17:08:50.463Z,14.93
2023-05-19T17:11:18.750Z,14.92
2023-05-19T17:13:47.025Z,14.89
2023-05-19T17:16:15.370Z,14.89
2023-05-19T17:18:46.651Z,14.84
2023-05-19T17:21:15.460Z,14.87
2023-05-19T17:23:43.709Z,14.84
2023-05-19T17:26:13.373Z,14.83
2023-05-19T17:28:41.621Z,14.81
2023-05-19T17:31:13.236Z,14.71
2023-05-19T17:33:41.493Z,14.71
2023-05-19T17:36:10.151Z,14.70
2023-05-19T17:38:40.444Z,14.68
2023-05-19T17:41:10.998Z,14.64
2023-05-19T17:43:41.414Z,14.60
2023-05-19T17:46:09.765Z,14.53
2023-05-19T17:48:38.286Z,14.51
2023-05-19T17:51:07.503Z,14.50
2023-05-19T17:53:36.653Z,14.44
2023-05-19T17:56:06.613Z,14.41
2023-05-19T17:58:35.607Z,14.37
2023-05-19T18:01:06.173Z,14.31
2023-05-19T18:03:35.165Z,14.26
2023-05-19T18:06:03.646Z,14.24
2023-05-19T18:08:32.619Z,14.21
2023-05-19T18:11:00.932Z,14.21
2023-05-19T18:13:29.201Z,14.17
2023-05-19T18:15:59.754Z,14.12
2023-05-19T18:18:29.491Z,14.08
2023-05-19T18:20:57.768Z,14.06
2023-05-19T18:23:26.032Z,14.02
2023-05-19T18:25:54.370Z,13.98
2023-05-19T18:28:22.592Z,13.98
2023-05-19T18:31:00.185Z,13.94
2023-05-19T18:33:30.945Z,13.90
2023-05-19T18:35:59.655Z,13.87
2023-05-19T18:38:27.965Z,13.83
2023-05-19T18:40:56.800Z,13.78
2023-05-19T18:43:25.463Z,13.72
2023-05-19T18:45:53.706Z,13.69
2023-05-19T18:48:22.604Z,13.62
2023-05-19T18:50:52.423Z,13.58
2023-05-19T18:53:22.265Z,13.51
2023-05-19T18:55:50.464Z,13.47
2023-05-19T18:58:18.995Z,13.48
2023-05-19T19:00:47.428Z,13.45
2023-05-19T19:03:15.982Z,13.43
2023-05-19T19:05:45.380Z,13.42
2023-05-19T19:08:15.016Z,13.41
2023-05-19T19:10:44.455Z,13.38
2023-05-19T19:13:12.730Z,13.38
2023-05-19T19:15:41.037Z,13.35
2023-05-19T19:18:09.403Z,13.34
2023-05-19T19:20:37.711Z,13.31
2023-05-19T19:23:06.841Z,13.30
2023-05-19T19:25:36.587Z,13.31
2023-05-19T19:28:04.973Z,13.31
2023-05-19T19:30:33.450Z,13.26
2023-05-19T19:33:02.411Z,13.24
2023-05-19T19:35:31.844Z,13.24
2023-05-19T19:38:00.425Z,13.20
2023-05-19T19:40:29.379Z,13.16
2023-05-19T19:42:59.059Z,13.17
2023-05-19T19:45:27.273Z,13.12
2023-05-19T19:47:55.659Z,13.13
2023-05-19T19:50:23.962Z,13.13
2023-05-19T19:52:52.985Z,13.15
2023-05-19T19:55:21.265Z,13.10
2023-05-19T19:57:51.242Z,13.09
2023-05-19T20:00:21.551Z,13.04
2023-05-19T20:03:03.565Z,13.04
2023-05-19T20:05:32.712Z,13.04
2023-05-19T20:08:01.207Z,13.03
2023-05-19T20:10:29.590Z,13.00
2023-05-19T20:12:59.345Z,12.97
2023-05-19T20:15:28.995Z,12.95
2023-05-19T20:17:57.509Z,12.95
2023-05-19T20:20:25.785Z,12.92
2023-05-19T20:22:54.049Z,12.91
2023-05-19T20:25:22.440Z,12.88
2023-05-19T20:27:50.738Z,12.88
2023-05-19T20:30:19.264Z,12.89
2023-05-19T20:32:49.212Z,12.90
2023-05-19T20:35:17.542Z,12.87
2023-05-19T20:37:45.845Z,12.85
2023-05-19T20:40:14.206Z,12.84
2023-05-19T20:42:42.514Z,12.81
2023-05-19T20:45:11.609Z,12.78
2023-05-19T20:47:39.921Z,12.77
2023-05-19T20:50:10.194Z,12.76
2023-05-19T20:52:38.459Z,12.75
2023-05-19T20:55:07.136Z,12.74
2023-05-19T20:57:35.874Z,12.72
2023-05-19T21:00:04.882Z,12.69
2023-05-19T21:02:33.220Z,12.68
2023-05-19T21:05:01.713Z,12.68
2023-05-19T21:07:31.511Z,12.66
2023-05-19T21:09:59.748Z,12.63
2023-05-19T21:12:33.962Z,12.62
2023-05-19T21:15:03.678Z,12.61
2023-05-19T21:17:32.180Z,12.60
2023-05-19T21:20:01.237Z,12.56
2023-05-19T21:22:29.563Z,12.56
2023-05-19T21:24:59.523Z,12.51
2023-05-19T21:27:28.042Z,12.45
2023-05-19T21:29:56.482Z,12.44
2023-05-19T21:32:25.019Z,12.41
2023-05-19T21:34:53.354Z,12.40
2023-05-19T21:37:21.801Z,12.38
2023-05-19T21:39:52.531Z,12.37
2023-05-19T21:42:22.250Z,12.38
2023-05-19T21:44:50.555Z,12.42
2023-05-19T21:47:18.829Z,12.40
2023-05-19T21:49:47.144Z,12.41
2023-05-19T21:52:15.688Z,12.41
2023-05-19T21:54:44.234Z,12.42
2023-05-19T21:57:13.140Z,12.41
2023-05-19T21:59:43.742Z,12.41
2023-05-19T22:02:12.039Z,12.41
2023-05-19T22:04:40.383Z,12.40
2023-05-19T22:07:09.272Z,12.39
2023-05-19T22:09:38.061Z,12.37
2023-05-19T22:12:07.164Z,12.35
2023-05-19T22:14:35.443Z,12.35
2023-05-19T22:17:05.277Z,12.35
2023-05-19T22:19:33.604Z,12.36
2023-05-19T22:22:13.178Z,12.37
2023-05-19T22:24:42.312Z,12.38
2023-05-19T22:27:10.555Z,12.38
2023-05-19T22:29:39.222Z,12.37
2023-05-19T22:32:12.076Z,12.35
2023-05-19T22:34:40.875Z,12.34
2023-05-19T22:37:09.228Z,12.32
2023-05-19T22:39:37.537Z,12.31
2023-05-19T22:42:06.153Z,12.27
2023-05-19T22:44:34.484Z,12.23
2023-05-19T22:47:02.782Z,12.21
2023-05-19T22:49:32.718Z,12.21
2023-05-19T22:52:01.043Z,12.17
2023-05-19T22:54:29.309Z,12.19
2023-05-19T22:56:57.556Z,12.19
2023-05-19T22:59:25.786Z,12.17
2023-05-19T23:01:54.112Z,12.14
2023-05-19T23:04:22.439Z,12.13
2023-05-19T23:06:52.367Z,12.13
2023-05-19T23:09:20.732Z,12.15
2023-05-19T23:11:49.036Z,12.13
2023-05-19T23:14:18.573Z,12.13
2023-05-19T23:16:46.924Z,12.12
2023-05-19T23:19:15.287Z,12.12
2023-05-19T23:21:44.628Z,12.14
2023-05-19T23:24:14.341Z,12.15
2023-05-19T23:26:43.923Z,12.17
2023-05-19T23:29:13.550Z,12.14
2023-05-19T23:31:42.085Z,12.12
2023-05-19T23:34:10.574Z,12.13
2023-05-19T23:36:38.856Z,12.12
2023-05-19T23:39:07.171Z,12.13
2023-05-19T23:41:36.835Z,12.09
2023-05-19T23:44:05.456Z,12.06
2023-05-19T23:46:34.273Z,12.04
2023-05-19T23:49:02.573Z,12.03
2023-05-19T23:51:31.395Z,12.01
2023-05-19T23:53:59.960Z,12.01
2023-05-19T23:56:28.477Z,12.00
2023-05-19T23:58:58.316Z,12.00
